sensor_id;sensor_type;location;lat;lon;timestamp;P1;durP1;ratioP1;P2;durP2;ratioP2
19675;SDS011;39539;52.202;9.876;2023-12-07T00:01:10;16.63;;;14.93;;
19675;SDS011;39539;52.202;9.876;2023-12-07T00:03:35;16.50;;;14.30;;
19675;SDS011;39539;52.202;9.876;2023-12-07T00:06:00;18.00;;;15.07;;
19675;SDS011;39539;52.202;9.876;2023-12-07T00:08:26;16.35;;;14.65;;
19675;SDS011;39539;52.202;9.876;2023-12-07T00:10:51;18.45;;;15.30;;
19675;SDS011;39539;52.202;9.876;2023-12-07T00:13:16;17.30;;;13.88;;
19675;SDS011;39539;52.202;9.876;2023-12-07T00:15:42;18.50;;;15.18;;
19675;SDS011;39539;52.202;9.876;2023-12-07T00:18:07;16.00;;;14.40;;
19675;SDS011;39539;52.202;9.876;2023-12-07T00:20:33;17.55;;;15.02;;
19675;SDS011;39539;52.202;9.876;2023-12-07T00:22:58;17.25;;;15.27;;
19675;SDS011;39539;52.202;9.876;2023-12-07T00:25:23;16.38;;;14.27;;
19675;SDS011;39539;52.202;9.876;2023-12-07T00:27:49;15.60;;;14.00;;
19675;SDS011;39539;52.202;9.876;2023-12-07T00:30:14;16.58;;;14.90;;
19675;SDS011;39539;52.202;9.876;2023-12-07T00:32:40;16.77;;;15.07;;
19675;SDS011;39539;52.202;9.876;2023-12-07T00:35:08;18.33;;;15.02;;
19675;SDS011;39539;52.202;9.876;2023-12-07T00:37:37;15.55;;;13.95;;
19675;SDS011;39539;52.202;9.876;2023-12-07T00:40:02;16.67;;;14.98;;
19675;SDS011;39539;52.202;9.876;2023-12-07T00:42:29;16.73;;;13.05;;
19675;SDS011;39539;52.202;9.876;2023-12-07T00:44:54;14.77;;;13.27;;
19675;SDS011;39539;52.202;9.876;2023-12-07T00:47:21;14.85;;;13.30;;
19675;SDS011;39539;52.202;9.876;2023-12-07T00:49:47;15.63;;;14.13;;
19675;SDS011;39539;52.202;9.876;2023-12-07T00:52:12;14.98;;;13.10;;
19675;SDS011;39539;52.202;9.876;2023-12-07T00:54:38;16.42;;;12.75;;
19675;SDS011;39539;52.202;9.876;2023-12-07T00:57:04;14.80;;;13.35;;
19675;SDS011;39539;52.202;9.876;2023-12-07T00:59:30;16.90;;;13.40;;
19675;SDS011;39539;52.202;9.876;2023-12-07T01:01:59;17.52;;;14.15;;
19675;SDS011;39539;52.202;9.876;2023-12-07T01:04:26;15.23;;;13.65;;
19675;SDS011;39539;52.202;9.876;2023-12-07T01:06:52;15.48;;;13.98;;
19675;SDS011;39539;52.202;9.876;2023-12-07T01:09:17;16.27;;;14.48;;
19675;SDS011;39539;52.202;9.876;2023-12-07T01:11:43;16.35;;;14.02;;
19675;SDS011;39539;52.202;9.876;2023-12-07T01:14:08;14.90;;;13.50;;
19675;SDS011;39539;52.202;9.876;2023-12-07T01:16:33;15.80;;;14.23;;
19675;SDS011;39539;52.202;9.876;2023-12-07T01:18:59;14.77;;;13.27;;
19675;SDS011;39539;52.202;9.876;2023-12-07T01:21:24;15.32;;;13.70;;
19675;SDS011;39539;52.202;9.876;2023-12-07T01:23:49;16.92;;;15.15;;
19675;SDS011;39539;52.202;9.876;2023-12-07T01:26:15;16.98;;;15.18;;
19675;SDS011;39539;52.202;9.876;2023-12-07T01:28:40;16.17;;;14.57;;
19675;SDS011;39539;52.202;9.876;2023-12-07T01:31:05;16.23;;;14.63;;
19675;SDS011;39539;52.202;9.876;2023-12-07T01:33:31;15.75;;;13.35;;
19675;SDS011;39539;52.202;9.876;2023-12-07T01:35:56;17.02;;;14.13;;
19675;SDS011;39539;52.202;9.876;2023-12-07T01:38:21;14.77;;;13.27;;
19675;SDS011;39539;52.202;9.876;2023-12-07T01:40:47;16.10;;;14.38;;
19675;SDS011;39539;52.202;9.876;2023-12-07T01:43:13;16.52;;;14.35;;
19675;SDS011;39539;52.202;9.876;2023-12-07T01:45:39;16.58;;;14.88;;
19675;SDS011;39539;52.202;9.876;2023-12-07T01:48:04;15.82;;;14.27;;
19675;SDS011;39539;52.202;9.876;2023-12-07T01:50:31;15.57;;;13.98;;
19675;SDS011;39539;52.202;9.876;2023-12-07T01:53:00;16.00;;;14.40;;
19675;SDS011;39539;52.202;9.876;2023-12-07T01:55:27;15.45;;;13.77;;
19675;SDS011;39539;52.202;9.876;2023-12-07T01:57:56;15.38;;;13.93;;
19675;SDS011;39539;52.202;9.876;2023-12-07T02:00:22;15.77;;;14.13;;
19675;SDS011;39539;52.202;9.876;2023-12-07T02:02:47;16.55;;;14.80;;
19675;SDS011;39539;52.202;9.876;2023-12-07T02:05:13;17.13;;;14.40;;
19675;SDS011;39539;52.202;9.876;2023-12-07T02:07:42;16.02;;;14.40;;
19675;SDS011;39539;52.202;9.876;2023-12-07T02:10:08;15.52;;;14.05;;
19675;SDS011;39539;52.202;9.876;2023-12-07T02:12:33;14.80;;;13.27;;
19675;SDS011;39539;52.202;9.876;2023-12-07T02:15:01;17.88;;;14.90;;
19675;SDS011;39539;52.202;9.876;2023-12-07T02:17:43;16.05;;;14.38;;
19675;SDS011;39539;52.202;9.876;2023-12-07T02:23:02;15.45;;;13.38;;
19675;SDS011;39539;52.202;9.876;2023-12-07T02:25:40;15.18;;;13.38;;
19675;SDS011;39539;52.202;9.876;2023-12-07T02:28:47;15.02;;;13.43;;
19675;SDS011;39539;52.202;9.876;2023-12-07T02:31:12;15.15;;;13.48;;
19675;SDS011;39539;52.202;9.876;2023-12-07T02:33:38;15.88;;;14.27;;
19675;SDS011;39539;52.202;9.876;2023-12-07T02:36:04;16.00;;;14.00;;
19675;SDS011;39539;52.202;9.876;2023-12-07T02:38:30;15.98;;;14.27;;
19675;SDS011;39539;52.202;9.876;2023-12-07T02:40:56;17.13;;;15.27;;
19675;SDS011;39539;52.202;9.876;2023-12-07T02:43:22;15.23;;;13.63;;
19675;SDS011;39539;52.202;9.876;2023-12-07T02:45:47;18.25;;;15.35;;
19675;SDS011;39539;52.202;9.876;2023-12-07T02:48:13;16.83;;;15.07;;
19675;SDS011;39539;52.202;9.876;2023-12-07T02:50:38;17.15;;;15.35;;
19675;SDS011;39539;52.202;9.876;2023-12-07T02:53:04;20.10;;;18.05;;
19675;SDS011;39539;52.202;9.876;2023-12-07T02:55:29;21.95;;;17.35;;
19675;SDS011;39539;52.202;9.876;2023-12-07T02:57:55;19.77;;;16.65;;
19675;SDS011;39539;52.202;9.876;2023-12-07T03:00:20;18.90;;;16.73;;
19675;SDS011;39539;52.202;9.876;2023-12-07T03:02:46;21.40;;;16.45;;
19675;SDS011;39539;52.202;9.876;2023-12-07T03:05:13;19.88;;;16.65;;
19675;SDS011;39539;52.202;9.876;2023-12-07T03:07:39;17.90;;;16.00;;
19675;SDS011;39539;52.202;9.876;2023-12-07T03:10:05;18.48;;;15.93;;
19675;SDS011;39539;52.202;9.876;2023-12-07T03:12:31;19.45;;;16.67;;
19675;SDS011;39539;52.202;9.876;2023-12-07T03:14:56;17.95;;;15.93;;
19675;SDS011;39539;52.202;9.876;2023-12-07T03:17:22;18.20;;;16.30;;
19675;SDS011;39539;52.202;9.876;2023-12-07T03:19:47;17.92;;;16.00;;
19675;SDS011;39539;52.202;9.876;2023-12-07T03:22:12;16.83;;;14.93;;
19675;SDS011;39539;52.202;9.876;2023-12-07T03:24:38;17.25;;;15.23;;
19675;SDS011;39539;52.202;9.876;2023-12-07T03:27:05;18.02;;;15.50;;
19675;SDS011;39539;52.202;9.876;2023-12-07T03:29:31;20.27;;;15.30;;
19675;SDS011;39539;52.202;9.876;2023-12-07T03:31:58;14.93;;;13.35;;
19675;SDS011;39539;52.202;9.876;2023-12-07T03:34:24;16.30;;;14.68;;
19675;SDS011;39539;52.202;9.876;2023-12-07T03:36:49;17.58;;;14.60;;
19675;SDS011;39539;52.202;9.876;2023-12-07T03:39:15;17.02;;;15.35;;
19675;SDS011;39539;52.202;9.876;2023-12-07T03:41:43;16.23;;;14.63;;
19675;SDS011;39539;52.202;9.876;2023-12-07T03:44:08;16.50;;;14.60;;
19675;SDS011;39539;52.202;9.876;2023-12-07T03:46:34;16.27;;;14.57;;
19675;SDS011;39539;52.202;9.876;2023-12-07T03:48:59;15.65;;;14.00;;
19675;SDS011;39539;52.202;9.876;2023-12-07T03:51:26;21.55;;;15.93;;
19675;SDS011;39539;52.202;9.876;2023-12-07T03:53:53;17.52;;;15.75;;
19675;SDS011;39539;52.202;9.876;2023-12-07T03:56:27;22.73;;;16.42;;
19675;SDS011;39539;52.202;9.876;2023-12-07T03:58:54;17.98;;;16.08;;
19675;SDS011;39539;52.202;9.876;2023-12-07T04:01:23;19.90;;;17.17;;
19675;SDS011;39539;52.202;9.876;2023-12-07T04:03:50;20.70;;;16.73;;
19675;SDS011;39539;52.202;9.876;2023-12-07T04:06:16;19.65;;;16.98;;
19675;SDS011;39539;52.202;9.876;2023-12-07T04:08:41;23.02;;;17.33;;
19675;SDS011;39539;52.202;9.876;2023-12-07T04:11:07;21.40;;;16.17;;
19675;SDS011;39539;52.202;9.876;2023-12-07T04:13:33;19.63;;;16.38;;
19675;SDS011;39539;52.202;9.876;2023-12-07T04:15:58;22.08;;;17.02;;
19675;SDS011;39539;52.202;9.876;2023-12-07T04:18:23;21.95;;;16.55;;
19675;SDS011;39539;52.202;9.876;2023-12-07T04:20:49;18.13;;;15.70;;
19675;SDS011;39539;52.202;9.876;2023-12-07T04:23:14;21.45;;;16.58;;
19675;SDS011;39539;52.202;9.876;2023-12-07T04:25:40;20.98;;;16.48;;
19675;SDS011;39539;52.202;9.876;2023-12-07T04:28:05;21.95;;;17.15;;
19675;SDS011;39539;52.202;9.876;2023-12-07T04:30:30;18.48;;;15.95;;
19675;SDS011;39539;52.202;9.876;2023-12-07T04:32:56;24.85;;;16.73;;
19675;SDS011;39539;52.202;9.876;2023-12-07T04:35:21;23.90;;;17.20;;
19675;SDS011;39539;52.202;9.876;2023-12-07T04:37:47;21.65;;;16.38;;
19675;SDS011;39539;52.202;9.876;2023-12-07T04:40:13;27.35;;;17.60;;
19675;SDS011;39539;52.202;9.876;2023-12-07T04:42:39;21.40;;;17.35;;
19675;SDS011;39539;52.202;9.876;2023-12-07T04:45:04;22.10;;;16.80;;
19675;SDS011;39539;52.202;9.876;2023-12-07T04:47:31;20.33;;;17.20;;
19675;SDS011;39539;52.202;9.876;2023-12-07T04:49:57;20.60;;;16.10;;
19675;SDS011;39539;52.202;9.876;2023-12-07T04:52:22;22.27;;;16.83;;
19675;SDS011;39539;52.202;9.876;2023-12-07T04:54:47;22.70;;;16.10;;
19675;SDS011;39539;52.202;9.876;2023-12-07T04:57:14;24.08;;;17.63;;
19675;SDS011;39539;52.202;9.876;2023-12-07T04:59:39;20.95;;;17.17;;
19675;SDS011;39539;52.202;9.876;2023-12-07T05:02:05;21.67;;;16.08;;
19675;SDS011;39539;52.202;9.876;2023-12-07T05:04:31;24.13;;;17.70;;
19675;SDS011;39539;52.202;9.876;2023-12-07T05:06:57;24.15;;;17.05;;
19675;SDS011;39539;52.202;9.876;2023-12-07T05:09:23;22.30;;;16.13;;
19675;SDS011;39539;52.202;9.876;2023-12-07T05:11:49;19.70;;;16.35;;
19675;SDS011;39539;52.202;9.876;2023-12-07T05:14:15;18.63;;;15.70;;
19675;SDS011;39539;52.202;9.876;2023-12-07T05:16:40;21.67;;;15.40;;
19675;SDS011;39539;52.202;9.876;2023-12-07T05:19:05;21.40;;;15.82;;
19675;SDS011;39539;52.202;9.876;2023-12-07T05:21:31;21.02;;;16.08;;
19675;SDS011;39539;52.202;9.876;2023-12-07T05:24:00;19.15;;;16.02;;
19675;SDS011;39539;52.202;9.876;2023-12-07T05:26:25;17.25;;;15.45;;
19675;SDS011;39539;52.202;9.876;2023-12-07T05:28:51;16.73;;;14.32;;
19675;SDS011;39539;52.202;9.876;2023-12-07T05:31:16;18.75;;;15.82;;
19675;SDS011;39539;52.202;9.876;2023-12-07T05:33:42;18.83;;;14.10;;
19675;SDS011;39539;52.202;9.876;2023-12-07T05:36:08;19.13;;;15.10;;
19675;SDS011;39539;52.202;9.876;2023-12-07T05:38:34;19.55;;;16.42;;
19675;SDS011;39539;52.202;9.876;2023-12-07T05:40:59;16.88;;;14.65;;
19675;SDS011;39539;52.202;9.876;2023-12-07T05:43:24;16.38;;;13.95;;
19675;SDS011;39539;52.202;9.876;2023-12-07T05:45:50;17.70;;;15.88;;
19675;SDS011;39539;52.202;9.876;2023-12-07T05:48:16;15.63;;;13.77;;
19675;SDS011;39539;52.202;9.876;2023-12-07T05:50:41;17.40;;;15.02;;
19675;SDS011;39539;52.202;9.876;2023-12-07T05:53:07;20.88;;;13.70;;
19675;SDS011;39539;52.202;9.876;2023-12-07T05:55:32;16.48;;;13.82;;
19675;SDS011;39539;52.202;9.876;2023-12-07T05:57:58;15.05;;;13.15;;
19675;SDS011;39539;52.202;9.876;2023-12-07T06:00:23;15.43;;;13.75;;
19675;SDS011;39539;52.202;9.876;2023-12-07T06:02:48;17.25;;;14.20;;
19675;SDS011;39539;52.202;9.876;2023-12-07T06:05:15;15.27;;;12.90;;
19675;SDS011;39539;52.202;9.876;2023-12-07T06:07:40;15.25;;;13.63;;
19675;SDS011;39539;52.202;9.876;2023-12-07T06:10:06;15.40;;;13.80;;
19675;SDS011;39539;52.202;9.876;2023-12-07T06:12:32;16.30;;;14.60;;
19675;SDS011;39539;52.202;9.876;2023-12-07T06:14:58;19.25;;;14.85;;
19675;SDS011;39539;52.202;9.876;2023-12-07T06:17:23;16.50;;;14.30;;
19675;SDS011;39539;52.202;9.876;2023-12-07T06:19:49;16.88;;;14.70;;
19675;SDS011;39539;52.202;9.876;2023-12-07T06:22:14;19.20;;;15.23;;
19675;SDS011;39539;52.202;9.876;2023-12-07T06:24:39;20.90;;;14.50;;
19675;SDS011;39539;52.202;9.876;2023-12-07T06:27:05;18.65;;;15.30;;
19675;SDS011;39539;52.202;9.876;2023-12-07T06:29:30;19.17;;;14.32;;
19675;SDS011;39539;52.202;9.876;2023-12-07T06:31:56;15.77;;;13.85;;
19675;SDS011;39539;52.202;9.876;2023-12-07T06:34:22;18.52;;;14.93;;
19675;SDS011;39539;52.202;9.876;2023-12-07T06:36:47;20.70;;;14.40;;
19675;SDS011;39539;52.202;9.876;2023-12-07T06:39:13;16.65;;;14.70;;
19675;SDS011;39539;52.202;9.876;2023-12-07T06:41:39;16.38;;;14.50;;
19675;SDS011;39539;52.202;9.876;2023-12-07T06:44:06;17.02;;;14.63;;
19675;SDS011;39539;52.202;9.876;2023-12-07T06:46:32;18.20;;;14.40;;
19675;SDS011;39539;52.202;9.876;2023-12-07T06:48:57;17.75;;;14.35;;
19675;SDS011;39539;52.202;9.876;2023-12-07T06:51:22;18.33;;;14.77;;
19675;SDS011;39539;52.202;9.876;2023-12-07T06:53:48;16.83;;;15.02;;
19675;SDS011;39539;52.202;9.876;2023-12-07T06:56:13;23.67;;;14.52;;
19675;SDS011;39539;52.202;9.876;2023-12-07T06:58:40;18.27;;;15.35;;
19675;SDS011;39539;52.202;9.876;2023-12-07T07:01:05;16.23;;;14.52;;
19675;SDS011;39539;52.202;9.876;2023-12-07T07:03:31;22.75;;;16.20;;
19675;SDS011;39539;52.202;9.876;2023-12-07T07:06:01;19.02;;;15.82;;
19675;SDS011;39539;52.202;9.876;2023-12-07T07:08:27;18.55;;;15.80;;
19675;SDS011;39539;52.202;9.876;2023-12-07T07:10:52;22.67;;;15.88;;
19675;SDS011;39539;52.202;9.876;2023-12-07T07:13:19;18.45;;;15.30;;
19675;SDS011;39539;52.202;9.876;2023-12-07T07:15:45;19.77;;;15.20;;
19675;SDS011;39539;52.202;9.876;2023-12-07T07:18:11;17.92;;;13.50;;
19675;SDS011;39539;52.202;9.876;2023-12-07T07:20:37;17.65;;;13.95;;
19675;SDS011;39539;52.202;9.876;2023-12-07T07:23:02;20.63;;;16.77;;
19675;SDS011;39539;52.202;9.876;2023-12-07T07:25:28;20.42;;;15.60;;
19675;SDS011;39539;52.202;9.876;2023-12-07T07:27:53;20.30;;;16.15;;
19675;SDS011;39539;52.202;9.876;2023-12-07T07:30:20;19.08;;;15.68;;
19675;SDS011;39539;52.202;9.876;2023-12-07T07:32:46;20.40;;;15.75;;
19675;SDS011;39539;52.202;9.876;2023-12-07T07:35:15;20.15;;;16.30;;
19675;SDS011;39539;52.202;9.876;2023-12-07T07:37:40;26.30;;;17.52;;
19675;SDS011;39539;52.202;9.876;2023-12-07T07:40:07;22.75;;;17.58;;
19675;SDS011;39539;52.202;9.876;2023-12-07T07:42:33;24.80;;;16.55;;
19675;SDS011;39539;52.202;9.876;2023-12-07T07:44:59;20.17;;;17.15;;
19675;SDS011;39539;52.202;9.876;2023-12-07T07:47:24;23.77;;;16.98;;
19675;SDS011;39539;52.202;9.876;2023-12-07T07:49:50;19.60;;;16.05;;
19675;SDS011;39539;52.202;9.876;2023-12-07T07:52:15;21.58;;;16.45;;
19675;SDS011;39539;52.202;9.876;2023-12-07T07:54:41;22.05;;;16.13;;
19675;SDS011;39539;52.202;9.876;2023-12-07T07:57:07;18.17;;;16.02;;
19675;SDS011;39539;52.202;9.876;2023-12-07T07:59:32;22.20;;;16.17;;
19675;SDS011;39539;52.202;9.876;2023-12-07T08:01:58;25.35;;;16.25;;
19675;SDS011;39539;52.202;9.876;2023-12-07T08:04:25;20.20;;;15.73;;
19675;SDS011;39539;52.202;9.876;2023-12-07T08:06:50;21.85;;;16.25;;
19675;SDS011;39539;52.202;9.876;2023-12-07T08:09:15;18.98;;;14.98;;
19675;SDS011;39539;52.202;9.876;2023-12-07T08:11:41;23.20;;;15.35;;
19675;SDS011;39539;52.202;9.876;2023-12-07T08:14:07;17.25;;;15.52;;
19675;SDS011;39539;52.202;9.876;2023-12-07T08:16:35;17.25;;;15.07;;
19675;SDS011;39539;52.202;9.876;2023-12-07T08:19:00;18.30;;;15.48;;
19675;SDS011;39539;52.202;9.876;2023-12-07T08:21:27;18.33;;;15.30;;
19675;SDS011;39539;52.202;9.876;2023-12-07T08:23:54;17.38;;;14.80;;
19675;SDS011;39539;52.202;9.876;2023-12-07T08:26:20;17.88;;;14.90;;
19675;SDS011;39539;52.202;9.876;2023-12-07T08:28:47;17.13;;;15.38;;
19675;SDS011;39539;52.202;9.876;2023-12-07T08:31:12;17.63;;;14.85;;
19675;SDS011;39539;52.202;9.876;2023-12-07T08:33:37;17.98;;;14.07;;
19675;SDS011;39539;52.202;9.876;2023-12-07T08:36:05;18.35;;;15.45;;
19675;SDS011;39539;52.202;9.876;2023-12-07T08:38:31;17.38;;;14.73;;
19675;SDS011;39539;52.202;9.876;2023-12-07T08:41:00;17.42;;;12.95;;
19675;SDS011;39539;52.202;9.876;2023-12-07T08:43:26;18.98;;;14.25;;
19675;SDS011;39539;52.202;9.876;2023-12-07T08:45:53;19.65;;;14.55;;
19675;SDS011;39539;52.202;9.876;2023-12-07T08:48:20;15.63;;;14.02;;
19675;SDS011;39539;52.202;9.876;2023-12-07T08:50:48;18.05;;;14.43;;
19675;SDS011;39539;52.202;9.876;2023-12-07T08:53:15;18.92;;;16.00;;
19675;SDS011;39539;52.202;9.876;2023-12-07T08:55:41;16.17;;;14.57;;
19675;SDS011;39539;52.202;9.876;2023-12-07T08:58:06;20.77;;;15.00;;
19675;SDS011;39539;52.202;9.876;2023-12-07T09:00:32;15.35;;;13.73;;
19675;SDS011;39539;52.202;9.876;2023-12-07T09:02:58;15.95;;;13.65;;
19675;SDS011;39539;52.202;9.876;2023-12-07T09:05:23;15.10;;;13.55;;
19675;SDS011;39539;52.202;9.876;2023-12-07T09:07:49;18.52;;;15.10;;
19675;SDS011;39539;52.202;9.876;2023-12-07T09:10:15;16.45;;;13.07;;
19675;SDS011;39539;52.202;9.876;2023-12-07T09:12:41;16.25;;;14.52;;
19675;SDS011;39539;52.202;9.876;2023-12-07T09:15:08;15.88;;;13.30;;
19675;SDS011;39539;52.202;9.876;2023-12-07T09:17:34;15.50;;;13.88;;
19675;SDS011;39539;52.202;9.876;2023-12-07T09:20:00;16.50;;;14.55;;
19675;SDS011;39539;52.202;9.876;2023-12-07T09:22:26;17.50;;;14.40;;
19675;SDS011;39539;52.202;9.876;2023-12-07T09:24:52;15.35;;;13.30;;
19675;SDS011;39539;52.202;9.876;2023-12-07T09:27:17;16.02;;;14.20;;
19675;SDS011;39539;52.202;9.876;2023-12-07T09:29:43;15.50;;;13.43;;
19675;SDS011;39539;52.202;9.876;2023-12-07T09:32:08;16.40;;;13.10;;
19675;SDS011;39539;52.202;9.876;2023-12-07T09:34:34;14.27;;;12.80;;
19675;SDS011;39539;52.202;9.876;2023-12-07T09:37:06;19.30;;;13.65;;
19675;SDS011;39539;52.202;9.876;2023-12-07T09:39:32;16.30;;;13.63;;
19675;SDS011;39539;52.202;9.876;2023-12-07T09:41:58;15.57;;;13.90;;
19675;SDS011;39539;52.202;9.876;2023-12-07T09:44:24;15.68;;;14.13;;
19675;SDS011;39539;52.202;9.876;2023-12-07T09:46:50;18.30;;;14.35;;
19675;SDS011;39539;52.202;9.876;2023-12-07T09:49:19;15.75;;;13.65;;
19675;SDS011;39539;52.202;9.876;2023-12-07T09:51:45;16.25;;;13.60;;
19675;SDS011;39539;52.202;9.876;2023-12-07T09:54:12;18.58;;;13.93;;
19675;SDS011;39539;52.202;9.876;2023-12-07T09:56:38;16.90;;;13.98;;
19675;SDS011;39539;52.202;9.876;2023-12-07T09:59:09;15.68;;;14.07;;
19675;SDS011;39539;52.202;9.876;2023-12-07T10:01:36;16.40;;;14.40;;
19675;SDS011;39539;52.202;9.876;2023-12-07T10:06:47;14.88;;;12.65;;
19675;SDS011;39539;52.202;9.876;2023-12-07T10:09:14;18.17;;;13.57;;
19675;SDS011;39539;52.202;9.876;2023-12-07T10:11:43;16.33;;;13.48;;
19675;SDS011;39539;52.202;9.876;2023-12-07T10:14:09;16.40;;;13.23;;
19675;SDS011;39539;52.202;9.876;2023-12-07T10:16:35;18.70;;;13.32;;
19675;SDS011;39539;52.202;9.876;2023-12-07T10:19:17;18.08;;;14.15;;
19675;SDS011;39539;52.202;9.876;2023-12-07T10:21:47;17.25;;;12.70;;
19675;SDS011;39539;52.202;9.876;2023-12-07T10:24:19;17.98;;;14.63;;
19675;SDS011;39539;52.202;9.876;2023-12-07T10:26:50;16.30;;;14.55;;
19675;SDS011;39539;52.202;9.876;2023-12-07T10:29:19;17.88;;;14.68;;
19675;SDS011;39539;52.202;9.876;2023-12-07T10:31:48;19.92;;;14.85;;
19675;SDS011;39539;52.202;9.876;2023-12-07T10:34:15;15.18;;;13.48;;
19675;SDS011;39539;52.202;9.876;2023-12-07T10:36:45;14.35;;;12.80;;
19675;SDS011;39539;52.202;9.876;2023-12-07T10:39:12;17.08;;;14.57;;
19675;SDS011;39539;52.202;9.876;2023-12-07T10:41:37;16.90;;;15.10;;
19675;SDS011;39539;52.202;9.876;2023-12-07T10:44:09;17.00;;;13.65;;
19675;SDS011;39539;52.202;9.876;2023-12-07T10:46:38;14.52;;;13.02;;
19675;SDS011;39539;52.202;9.876;2023-12-07T10:49:09;16.80;;;14.32;;
19675;SDS011;39539;52.202;9.876;2023-12-07T10:51:41;17.42;;;13.10;;
19675;SDS011;39539;52.202;9.876;2023-12-07T10:54:14;16.20;;;14.60;;
19675;SDS011;39539;52.202;9.876;2023-12-07T10:56:45;19.35;;;13.55;;
19675;SDS011;39539;52.202;9.876;2023-12-07T10:59:12;14.83;;;10.83;;
19675;SDS011;39539;52.202;9.876;2023-12-07T11:01:41;17.52;;;15.73;;
19675;SDS011;39539;52.202;9.876;2023-12-07T11:04:09;18.08;;;15.00;;
19675;SDS011;39539;52.202;9.876;2023-12-07T11:06:41;24.35;;;16.30;;
19675;SDS011;39539;52.202;9.876;2023-12-07T11:09:16;17.13;;;13.93;;
19675;SDS011;39539;52.202;9.876;2023-12-07T11:15:03;16.20;;;13.88;;
19675;SDS011;39539;52.202;9.876;2023-12-07T11:17:30;17.83;;;14.02;;
19675;SDS011;39539;52.202;9.876;2023-12-07T11:20:19;17.73;;;14.38;;
19675;SDS011;39539;52.202;9.876;2023-12-07T11:22:56;17.75;;;14.48;;
19675;SDS011;39539;52.202;9.876;2023-12-07T11:25:23;20.65;;;15.23;;
19675;SDS011;39539;52.202;9.876;2023-12-07T11:27:58;14.95;;;13.10;;
19675;SDS011;39539;52.202;9.876;2023-12-07T11:30:25;16.50;;;14.57;;
19675;SDS011;39539;52.202;9.876;2023-12-07T11:32:50;18.45;;;15.52;;
19675;SDS011;39539;52.202;9.876;2023-12-07T11:35:16;16.08;;;14.35;;
19675;SDS011;39539;52.202;9.876;2023-12-07T11:40:37;19.65;;;15.70;;
19675;SDS011;39539;52.202;9.876;2023-12-07T11:43:05;16.60;;;13.88;;
19675;SDS011;39539;52.202;9.876;2023-12-07T11:48:07;17.20;;;14.35;;
19675;SDS011;39539;52.202;9.876;2023-12-07T11:50:33;19.70;;;15.05;;
19675;SDS011;39539;52.202;9.876;2023-12-07T11:52:59;17.63;;;14.77;;
19675;SDS011;39539;52.202;9.876;2023-12-07T11:55:24;20.40;;;12.07;;
19675;SDS011;39539;52.202;9.876;2023-12-07T11:57:50;16.20;;;14.35;;
19675;SDS011;39539;52.202;9.876;2023-12-07T12:00:15;19.10;;;15.73;;
19675;SDS011;39539;52.202;9.876;2023-12-07T12:02:42;18.15;;;15.95;;
19675;SDS011;39539;52.202;9.876;2023-12-07T12:05:09;19.15;;;16.13;;
19675;SDS011;39539;52.202;9.876;2023-12-07T12:07:35;20.58;;;16.77;;
19675;SDS011;39539;52.202;9.876;2023-12-07T12:10:03;19.33;;;15.35;;
19675;SDS011;39539;52.202;9.876;2023-12-07T12:12:29;21.15;;;15.40;;
19675;SDS011;39539;52.202;9.876;2023-12-07T12:14:58;18.25;;;13.40;;
19675;SDS011;39539;52.202;9.876;2023-12-07T12:17:23;16.58;;;14.32;;
19675;SDS011;39539;52.202;9.876;2023-12-07T12:19:49;16.15;;;13.05;;
19675;SDS011;39539;52.202;9.876;2023-12-07T12:22:19;19.20;;;13.85;;
19675;SDS011;39539;52.202;9.876;2023-12-07T12:24:46;17.48;;;14.20;;
19675;SDS011;39539;52.202;9.876;2023-12-07T12:27:13;18.00;;;15.07;;
19675;SDS011;39539;52.202;9.876;2023-12-07T12:29:40;17.55;;;13.70;;
19675;SDS011;39539;52.202;9.876;2023-12-07T12:32:09;17.92;;;13.23;;
19675;SDS011;39539;52.202;9.876;2023-12-07T12:34:38;16.88;;;13.52;;
19675;SDS011;39539;52.202;9.876;2023-12-07T12:37:03;17.10;;;14.02;;
19675;SDS011;39539;52.202;9.876;2023-12-07T12:39:30;14.27;;;12.70;;
19675;SDS011;39539;52.202;9.876;2023-12-07T12:41:57;17.33;;;14.15;;
19675;SDS011;39539;52.202;9.876;2023-12-07T12:44:24;15.23;;;13.02;;
19675;SDS011;39539;52.202;9.876;2023-12-07T12:46:50;14.30;;;12.15;;
19675;SDS011;39539;52.202;9.876;2023-12-07T12:49:15;15.55;;;12.45;;
19675;SDS011;39539;52.202;9.876;2023-12-07T12:51:42;14.07;;;12.60;;
19675;SDS011;39539;52.202;9.876;2023-12-07T12:54:09;16.75;;;13.40;;
19675;SDS011;39539;52.202;9.876;2023-12-07T12:56:39;14.05;;;12.13;;
19675;SDS011;39539;52.202;9.876;2023-12-07T12:59:08;15.65;;;13.18;;
19675;SDS011;39539;52.202;9.876;2023-12-07T13:01:34;16.83;;;15.05;;
19675;SDS011;39539;52.202;9.876;2023-12-07T13:03:59;14.10;;;11.88;;
19675;SDS011;39539;52.202;9.876;2023-12-07T13:06:25;13.43;;;12.07;;
19675;SDS011;39539;52.202;9.876;2023-12-07T13:08:51;13.25;;;11.80;;
19675;SDS011;39539;52.202;9.876;2023-12-07T13:11:17;12.90;;;11.50;;
19675;SDS011;39539;52.202;9.876;2023-12-07T13:13:44;16.10;;;12.82;;
19675;SDS011;39539;52.202;9.876;2023-12-07T13:16:12;14.90;;;11.77;;
19675;SDS011;39539;52.202;9.876;2023-12-07T13:18:40;25.05;;;16.67;;
19675;SDS011;39539;52.202;9.876;2023-12-07T13:21:05;27.10;;;19.08;;
19675;SDS011;39539;52.202;9.876;2023-12-07T13:23:31;16.80;;;14.48;;
19675;SDS011;39539;52.202;9.876;2023-12-07T13:25:57;17.98;;;16.08;;
19675;SDS011;39539;52.202;9.876;2023-12-07T13:28:24;19.65;;;15.50;;
19675;SDS011;39539;52.202;9.876;2023-12-07T13:30:51;15.13;;;12.55;;
19675;SDS011;39539;52.202;9.876;2023-12-07T13:33:19;14.02;;;11.98;;
19675;SDS011;39539;52.202;9.876;2023-12-07T13:35:48;13.65;;;12.25;;
19675;SDS011;39539;52.202;9.876;2023-12-07T13:38:21;12.02;;;10.32;;
19675;SDS011;39539;52.202;9.876;2023-12-07T13:40:49;12.93;;;10.25;;
19675;SDS011;39539;52.202;9.876;2023-12-07T13:43:14;11.20;;;9.85;;
19675;SDS011;39539;52.202;9.876;2023-12-07T13:45:41;12.00;;;10.20;;
19675;SDS011;39539;52.202;9.876;2023-12-07T13:48:07;11.60;;;10.40;;
19675;SDS011;39539;52.202;9.876;2023-12-07T13:50:33;11.48;;;10.10;;
19675;SDS011;39539;52.202;9.876;2023-12-07T13:52:58;10.77;;;9.77;;
19675;SDS011;39539;52.202;9.876;2023-12-07T13:55:24;12.18;;;10.98;;
19675;SDS011;39539;52.202;9.876;2023-12-07T13:57:51;10.82;;;9.45;;
19675;SDS011;39539;52.202;9.876;2023-12-07T14:00:19;11.68;;;10.48;;
19675;SDS011;39539;52.202;9.876;2023-12-07T14:02:47;11.25;;;9.98;;
19675;SDS011;39539;52.202;9.876;2023-12-07T14:05:14;11.30;;;10.15;;
19675;SDS011;39539;52.202;9.876;2023-12-07T14:07:40;9.27;;;8.38;;
19675;SDS011;39539;52.202;9.876;2023-12-07T14:10:05;9.35;;;8.27;;
19675;SDS011;39539;52.202;9.876;2023-12-07T14:12:33;10.75;;;9.05;;
19675;SDS011;39539;52.202;9.876;2023-12-07T14:14:58;10.73;;;9.00;;
19675;SDS011;39539;52.202;9.876;2023-12-07T14:17:24;13.38;;;8.23;;
19675;SDS011;39539;52.202;9.876;2023-12-07T14:19:53;8.25;;;6.05;;
19675;SDS011;39539;52.202;9.876;2023-12-07T14:22:19;4.90;;;4.40;;
19675;SDS011;39539;52.202;9.876;2023-12-07T14:24:45;6.32;;;5.68;;
19675;SDS011;39539;52.202;9.876;2023-12-07T14:27:13;6.72;;;6.13;;
19675;SDS011;39539;52.202;9.876;2023-12-07T14:29:40;8.55;;;7.10;;
19675;SDS011;39539;52.202;9.876;2023-12-07T14:32:09;8.68;;;7.88;;
19675;SDS011;39539;52.202;9.876;2023-12-07T14:34:35;12.07;;;6.88;;